Time;durP1;ratioP1;P1;durP2;ratioP2;P2;SDS_P1;SDS_P2;PMS_P1;PMS_P2;Temp;Humidity;BMP_temperature;BMP_pressure;BME280_temperature;BME280_humidity;BME280_pressure;Samples;Min_cycle;Max_cycle;Signal;HPM_P1;HPM_P2
2023/09/12 00:01:33;;;;;;;48.70;43.88;;;19.80;99.90;;;;;;5057095;28;20795;-71
2023/09/12 00:03:59;;;;;;;114.25;64.40;;;19.80;99.90;;;;;;5058443;28;20047;-71
2023/09/12 00:06:25;;;;;;;46.80;42.08;;;19.80;99.90;;;;;;5060930;28;20513;-71
2023/09/12 00:08:54;;;;;;;48.45;43.50;;;19.80;99.90;;;;;;5043814;28;20041;-71
2023/09/12 00:11:20;;;;;;;45.37;41.00;;;19.80;99.90;;;;;;5058060;28;20506;-71
2023/09/12 00:13:45;;;;;;;67.10;53.67;;;19.70;99.90;;;;;;5049962;28;20314;-71
2023/09/12 00:16:11;;;;;;;52.30;46.20;;;19.70;99.90;;;;;;5061279;28;20479;-71
2023/09/12 00:18:38;;;;;;;46.45;41.88;;;19.70;99.90;;;;;;5062824;28;20037;-71
2023/09/12 00:21:03;;;;;;;46.92;42.33;;;19.70;99.90;;;;;;5041902;28;20532;-71
2023/09/12 00:23:29;;;;;;;48.97;44.15;;;19.70;99.90;;;;;;5050153;28;20090;-71
2023/09/12 00:25:56;;;;;;;50.28;45.33;;;19.80;99.90;;;;;;5058237;28;20047;-74
2023/09/12 00:28:22;;;;;;;48.47;43.50;;;19.80;99.90;;;;;;5043126;28;20130;-74
2023/09/12 00:30:48;;;;;;;48.47;43.67;;;19.70;99.90;;;;;;5065771;28;20407;-73
2023/09/12 00:33:13;;;;;;;45.58;41.25;;;19.70;99.90;;;;;;5048706;28;20071;-71
2023/09/12 00:35:39;;;;;;;55.53;48.72;;;19.70;99.90;;;;;;5087928;28;20051;-71
2023/09/12 00:38:06;;;;;;;45.20;40.85;;;19.70;99.90;;;;;;5050545;28;20137;-70
2023/09/12 00:40:32;;;;;;;46.00;41.50;;;19.70;99.90;;;;;;5046475;28;20471;-71
2023/09/12 00:42:59;;;;;;;47.67;42.92;;;19.70;99.90;;;;;;5059523;28;20499;-71
2023/09/12 00:45:25;;;;;;;53.03;47.72;;;19.70;99.90;;;;;;5063130;28;20049;-71
2023/09/12 00:47:52;;;;;;;50.00;44.97;;;19.60;99.90;;;;;;5066735;28;20040;-71
2023/09/12 00:50:20;;;;;;;48.83;44.03;;;19.60;99.90;;;;;;5060268;28;20109;-71
2023/09/12 00:52:47;;;;;;;59.10;53.00;;;19.70;99.90;;;;;;5073392;28;20631;-71
2023/09/12 00:55:13;;;;;;;56.28;50.30;;;19.70;99.90;;;;;;5071984;28;20534;-71
2023/09/12 00:57:40;;;;;;;48.50;43.58;;;19.60;99.90;;;;;;5055727;28;20557;-71
2023/09/12 01:00:10;;;;;;;53.05;47.60;;;19.60;99.90;;;;;;5053842;28;20119;-71
2023/09/12 01:02:45;;;;;;;68.15;53.40;;;19.60;99.90;;;;;;5040930;28;20070;-71
2023/09/12 01:05:14;;;;;;;116.07;67.32;;;19.60;99.90;;;;;;5055617;28;20049;-71
2023/09/12 01:07:42;;;;;;;73.55;54.22;;;19.60;99.90;;;;;;5061825;28;20124;-71
2023/09/12 01:10:09;;;;;;;53.08;47.55;;;19.50;99.90;;;;;;5058725;28;20075;-71
2023/09/12 01:12:35;;;;;;;54.78;49.22;;;19.50;99.90;;;;;;5056416;28;20056;-71
2023/09/12 01:15:01;;;;;;;61.50;51.92;;;19.50;99.90;;;;;;5059344;28;20053;-71
2023/09/12 01:17:27;;;;;;;58.75;52.40;;;19.50;99.90;;;;;;5044618;28;20091;-71
2023/09/12 01:19:53;;;;;;;49.15;44.28;;;19.50;99.90;;;;;;5055064;28;20066;-71
2023/09/12 01:22:40;;;;;;;49.25;44.30;;;19.50;99.90;;;;;;5046674;28;20353;-74
2023/09/12 01:25:09;;;;;;;44.50;40.50;;;19.50;99.90;;;;;;5054579;28;20044;-72
2023/09/12 01:27:39;;;;;;;48.67;43.78;;;19.40;99.90;;;;;;5037366;28;20055;-72
2023/09/12 01:30:07;;;;;;;48.78;43.88;;;19.40;99.90;;;;;;5036009;28;20040;-71
2023/09/12 01:32:34;;;;;;;46.17;41.60;;;19.40;99.90;;;;;;5054930;28;20076;-72
2023/09/12 01:35:02;;;;;;;51.80;46.78;;;19.30;99.90;;;;;;5040180;28;20179;-71
2023/09/12 01:37:29;;;;;;;56.40;50.28;;;19.30;99.90;;;;;;5057837;28;20044;-72
2023/09/12 01:39:55;;;;;;;59.97;49.10;;;19.30;99.90;;;;;;5056228;28;20168;-72
2023/09/12 01:42:27;;;;;;;46.70;42.35;;;19.30;99.90;;;;;;5059548;28;20350;-72
2023/09/12 01:44:57;;;;;;;41.88;37.88;;;19.30;99.90;;;;;;5093329;27;20048;-72
2023/09/12 01:47:25;;;;;;;66.53;51.30;;;19.20;99.90;;;;;;5042745;28;20055;-72
2023/09/12 01:49:55;;;;;;;64.75;50.85;;;19.10;99.90;;;;;;5061183;28;20044;-72
2023/09/12 01:52:22;;;;;;;45.22;40.72;;;19.10;99.90;;;;;;5075196;28;20155;-72
2023/09/12 01:54:49;;;;;;;48.10;43.35;;;19.00;99.90;;;;;;5078251;28;20116;-71
2023/09/12 01:57:16;;;;;;;67.72;49.53;;;19.00;99.90;;;;;;5057801;28;20081;-72
2023/09/12 01:59:42;;;;;;;48.55;43.60;;;19.10;99.90;;;;;;5059404;28;20064;-72
2023/09/12 02:02:08;;;;;;;45.88;41.47;;;19.10;99.90;;;;;;5060799;28;20043;-72
2023/09/12 02:04:33;;;;;;;50.60;45.75;;;19.00;99.90;;;;;;5058273;28;20048;-72
2023/09/12 02:06:59;;;;;;;53.72;48.22;;;19.00;99.90;;;;;;5062207;28;20037;-72
2023/09/12 02:09:25;;;;;;;57.00;51.10;;;19.00;99.90;;;;;;5060744;28;20041;-72
2023/09/12 02:11:51;;;;;;;51.20;46.08;;;19.10;99.90;;;;;;5062633;28;20040;-70
2023/09/12 02:14:18;;;;;;;49.70;44.70;;;19.10;99.90;;;;;;5061138;28;20990;-72
2023/09/12 02:16:44;;;;;;;53.47;47.97;;;19.00;99.90;;;;;;5045876;28;20052;-72
2023/09/12 02:19:10;;;;;;;48.47;43.70;;;19.00;99.90;;;;;;5056142;28;20040;-72
2023/09/12 02:21:36;;;;;;;53.40;47.95;;;19.00;99.90;;;;;;5060732;28;20051;-72
2023/09/12 02:24:01;;;;;;;61.50;54.92;;;19.00;99.90;;;;;;5043369;28;20411;-72
2023/09/12 02:26:27;;;;;;;49.67;44.65;;;19.00;99.90;;;;;;5046100;28;20059;-72
2023/09/12 02:28:53;;;;;;;51.95;46.50;;;18.90;99.90;;;;;;5057784;28;20052;-71
2023/09/12 02:31:19;;;;;;;53.65;47.90;;;18.90;99.90;;;;;;5060302;28;20082;-71
2023/09/12 02:33:45;;;;;;;51.60;46.30;;;18.90;99.90;;;;;;5059766;28;20479;-72
2023/09/12 02:36:11;;;;;;;51.95;46.22;;;18.80;99.90;;;;;;5038933;28;20780;-72
2023/09/12 02:38:36;;;;;;;76.65;53.30;;;18.80;99.90;;;;;;5062241;28;20151;-72
2023/09/12 02:41:02;;;;;;;45.33;40.88;;;18.80;99.90;;;;;;5045758;28;20037;-72
2023/09/12 02:43:29;;;;;;;51.75;46.47;;;18.80;99.90;;;;;;5063175;28;20044;-72
2023/09/12 02:45:54;;;;;;;64.32;49.53;;;18.80;99.90;;;;;;5047712;28;20037;-72
2023/09/12 02:48:20;;;;;;;47.72;42.92;;;18.70;99.90;;;;;;5061167;28;20041;-72
2023/09/12 02:50:46;;;;;;;49.65;44.60;;;18.70;99.90;;;;;;5063379;28;20689;-72
2023/09/12 02:53:12;;;;;;;50.53;45.13;;;18.60;99.90;;;;;;5038234;28;20071;-72
2023/09/12 02:55:43;;;;;;;56.35;42.90;;;18.60;99.90;;;;;;5055845;28;20056;-72
2023/09/12 02:58:09;;;;;;;74.82;45.00;;;18.60;99.90;;;;;;5061282;28;20044;-72
2023/09/12 03:00:40;;;;;;;45.22;40.67;;;18.60;99.90;;;;;;5055457;28;20486;-72
2023/09/12 03:03:06;;;;;;;86.07;43.08;;;18.50;99.90;;;;;;5040155;28;20118;-72
2023/09/12 03:05:32;;;;;;;43.33;39.22;;;18.50;99.90;;;;;;5045522;28;20045;-72
2023/09/12 03:07:57;;;;;;;48.78;44.03;;;18.30;99.90;;;;;;5050819;28;20462;-72
2023/09/12 03:10:23;;;;;;;50.70;45.58;;;18.30;99.90;;;;;;5056167;28;20051;-72
2023/09/12 03:12:49;;;;;;;48.25;43.35;;;18.20;99.90;;;;;;5046560;28;20066;-71
2023/09/12 03:15:15;;;;;;;48.70;43.78;;;18.20;99.90;;;;;;5056581;28;20122;-72
2023/09/12 03:17:40;;;;;;;48.25;43.53;;;18.20;99.90;;;;;;5053723;28;20579;-72
2023/09/12 03:20:09;;;;;;;51.92;46.75;;;18.20;99.90;;;;;;5044163;28;20043;-72
2023/09/12 03:22:37;;;;;;;48.22;43.20;;;18.30;99.90;;;;;;5062347;28;20498;-72
2023/09/12 03:25:04;;;;;;;56.95;50.67;;;18.30;99.90;;;;;;5072980;28;20050;-72
2023/09/12 03:27:30;;;;;;;51.58;46.28;;;18.30;99.90;;;;;;5057131;28;20079;-72
2023/09/12 03:29:56;;;;;;;49.38;44.20;;;18.30;99.90;;;;;;5044864;28;20052;-72
2023/09/12 03:32:21;;;;;;;69.18;54.70;;;18.30;99.90;;;;;;5063371;28;20158;-72
2023/09/12 03:34:47;;;;;;;52.67;47.53;;;18.40;99.90;;;;;;5040971;28;20483;-72
2023/09/12 03:37:13;;;;;;;105.93;62.20;;;18.40;99.90;;;;;;5063691;28;20484;-72
2023/09/12 03:39:38;;;;;;;63.08;54.35;;;18.40;99.90;;;;;;5064862;28;20044;-72
2023/09/12 03:42:04;;;;;;;50.75;45.70;;;18.40;99.90;;;;;;5049152;28;20152;-72
2023/09/12 03:44:30;;;;;;;53.83;48.20;;;18.40;99.90;;;;;;5061777;28;20066;-72
2023/09/12 03:46:57;;;;;;;50.78;45.88;;;18.50;99.90;;;;;;5060856;28;20135;-72
2023/09/12 03:49:23;;;;;;;48.85;44.00;;;18.50;99.90;;;;;;5051059;28;20048;-72
2023/09/12 03:51:49;;;;;;;101.25;53.90;;;18.50;99.90;;;;;;5057517;28;20040;-72
2023/09/12 03:54:15;;;;;;;63.03;50.97;;;18.50;99.90;;;;;;5056966;28;20171;-72
2023/09/12 03:56:41;;;;;;;65.95;49.42;;;18.50;99.90;;;;;;5062164;28;20479;-72
2023/09/12 03:59:06;;;;;;;53.83;48.40;;;18.50;99.90;;;;;;5049482;28;20037;-72
2023/09/12 04:01:32;;;;;;;58.25;52.13;;;18.40;99.90;;;;;;5058058;28;20048;-72
2023/09/12 04:03:58;;;;;;;244.25;72.00;;;18.40;99.90;;;;;;5056479;28;20033;-72
2023/09/12 04:06:24;;;;;;;53.28;46.80;;;18.40;99.90;;;;;;5052795;28;20507;-72
2023/09/12 04:08:49;;;;;;;65.40;52.47;;;18.40;99.90;;;;;;5040323;28;20045;-72
2023/09/12 04:11:15;;;;;;;53.50;48.25;;;18.40;99.90;;;;;;5051589;28;20060;-72
2023/09/12 04:13:41;;;;;;;69.80;51.20;;;18.40;99.90;;;;;;5057240;28;20045;-72
2023/09/12 04:16:07;;;;;;;74.30;55.15;;;18.40;99.90;;;;;;5045497;28;20040;-72
2023/09/12 04:18:33;;;;;;;57.88;51.53;;;18.40;99.90;;;;;;5055348;28;20047;-71
2023/09/12 04:20:58;;;;;;;67.05;55.35;;;18.40;99.90;;;;;;5044061;28;20040;-72
2023/09/12 04:23:27;;;;;;;70.32;51.15;;;18.40;99.90;;;;;;5046905;28;20036;-72
2023/09/12 04:25:53;;;;;;;92.53;53.88;;;18.30;99.90;;;;;;5040968;28;20041;-72
2023/09/12 04:28:18;;;;;;;92.47;54.83;;;18.30;99.90;;;;;;5056749;28;20545;-72
2023/09/12 04:30:44;;;;;;;56.42;49.63;;;18.30;99.90;;;;;;5062316;28;20043;-72
2023/09/12 04:33:13;;;;;;;96.60;56.83;;;18.30;99.90;;;;;;5060523;28;20514;-72
2023/09/12 04:35:39;;;;;;;87.20;54.20;;;18.30;99.90;;;;;;5065404;28;20041;-72
2023/09/12 04:38:04;;;;;;;60.28;53.88;;;18.30;99.90;;;;;;5075244;28;20055;-72
2023/09/12 04:40:31;;;;;;;158.13;65.93;;;18.30;99.90;;;;;;5044832;28;20043;-72
2023/09/12 04:42:57;;;;;;;145.73;64.80;;;18.30;99.90;;;;;;5061036;28;20151;-72
2023/09/12 04:45:22;;;;;;;54.17;48.58;;;18.20;99.90;;;;;;5064424;28;20127;-72
2023/09/12 04:47:48;;;;;;;98.15;59.60;;;18.30;99.90;;;;;;5058098;28;20044;-72
2023/09/12 04:50:14;;;;;;;54.60;49.00;;;18.20;99.90;;;;;;5040056;28;20613;-72
2023/09/12 04:52:41;;;;;;;57.72;49.47;;;18.30;99.90;;;;;;5057618;28;20048;-72
2023/09/12 04:55:10;;;;;;;55.45;49.63;;;18.20;99.90;;;;;;5058130;28;20060;-72
2023/09/12 04:57:36;;;;;;;59.00;49.53;;;18.20;99.90;;;;;;5059683;28;20044;-72
2023/09/12 05:00:02;;;;;;;55.28;48.72;;;18.20;99.90;;;;;;5056783;28;20472;-72
2023/09/12 05:02:28;;;;;;;50.45;45.33;;;18.20;99.90;;;;;;5057326;28;20036;-72
2023/09/12 05:04:53;;;;;;;59.55;50.22;;;18.20;99.90;;;;;;5064432;28;20033;-72
2023/09/12 05:07:19;;;;;;;109.60;51.25;;;18.20;99.90;;;;;;5057366;28;20185;-72
2023/09/12 05:09:45;;;;;;;51.40;45.97;;;18.20;99.90;;;;;;5063861;28;20045;-71
2023/09/12 05:12:11;;;;;;;52.13;46.60;;;18.20;99.90;;;;;;5048513;28;20051;-72
2023/09/12 05:14:36;;;;;;;56.08;48.15;;;18.20;99.90;;;;;;5065763;28;20041;-72
2023/09/12 05:17:02;;;;;;;100.90;54.35;;;18.20;99.90;;;;;;5048657;28;20117;-72
2023/09/12 05:19:30;;;;;;;71.82;48.03;;;18.20;99.90;;;;;;5073509;28;20033;-72
2023/09/12 05:21:56;;;;;;;46.42;41.67;;;18.20;99.90;;;;;;5060975;28;20449;-73
2023/09/12 05:24:21;;;;;;;75.15;48.67;;;18.20;99.90;;;;;;5063623;28;20032;-73
2023/09/12 05:26:49;;;;;;;115.75;56.35;;;18.10;99.90;;;;;;5071254;28;20040;-73
2023/09/12 05:29:14;;;;;;;51.60;44.83;;;18.20;99.90;;;;;;5057839;28;20061;-73
2023/09/12 05:31:40;;;;;;;61.08;51.20;;;18.10;99.90;;;;;;5058646;28;20063;-73
2023/09/12 05:34:06;;;;;;;57.95;47.78;;;18.10;99.90;;;;;;5046870;28;20556;-73
2023/09/12 05:36:32;;;;;;;62.03;51.72;;;18.20;99.90;;;;;;5045329;28;20041;-73
2023/09/12 05:38:58;;;;;;;77.85;51.58;;;18.10;99.90;;;;;;5062374;28;20511;-73
2023/09/12 05:41:23;;;;;;;123.38;63.13;;;18.10;99.90;;;;;;5062474;28;20029;-73
2023/09/12 05:43:49;;;;;;;96.57;55.53;;;18.10;99.90;;;;;;5057836;28;20044;-72
2023/09/12 05:46:15;;;;;;;59.90;47.63;;;18.10;99.90;;;;;;5074294;28;20052;-73
2023/09/12 05:48:41;;;;;;;81.78;55.30;;;18.10;99.90;;;;;;5048201;28;20091;-75
2023/09/12 05:51:07;;;;;;;73.28;53.50;;;18.10;99.90;;;;;;5046193;28;20056;-76
2023/09/12 05:53:32;;;;;;;64.80;51.78;;;18.10;99.90;;;;;;5058023;28;20384;-76
2023/09/12 05:55:58;;;;;;;87.03;52.42;;;18.10;99.90;;;;;;5047993;28;20055;-76
2023/09/12 05:58:24;;;;;;;70.10;53.95;;;18.10;99.90;;;;;;5058701;28;20091;-76
2023/09/12 06:00:50;;;;;;;135.48;55.03;;;18.10;99.90;;;;;;5062895;28;20095;-76
2023/09/12 06:03:16;;;;;;;138.60;61.22;;;18.10;99.90;;;;;;5081370;28;20384;-76
2023/09/12 06:05:42;;;;;;;101.45;57.92;;;18.10;99.90;;;;;;5066538;28;20458;-77
2023/09/12 06:08:08;;;;;;;114.70;59.95;;;18.10;99.90;;;;;;5054434;28;20067;-76
2023/09/12 06:10:36;;;;;;;85.55;52.88;;;18.10;99.90;;;;;;5074360;28;20066;-77
2023/09/12 06:13:02;;;;;;;104.75;57.17;;;18.10;99.90;;;;;;5044895;28;20041;-77
2023/09/12 06:15:28;;;;;;;96.80;55.88;;;18.10;99.90;;;;;;5070097;28;20087;-77
2023/09/12 06:17:54;;;;;;;185.30;71.00;;;18.20;99.90;;;;;;5056931;28;20519;-77
2023/09/12 06:20:21;;;;;;;135.73;62.65;;;18.20;99.90;;;;;;5079038;28;20811;-77
2023/09/12 06:22:47;;;;;;;208.00;75.20;;;18.20;99.90;;;;;;5058540;28;20048;-77
2023/09/12 06:25:13;;;;;;;110.25;61.30;;;18.20;99.90;;;;;;5047382;28;20044;-77
2023/09/12 06:27:41;;;;;;;91.93;59.72;;;18.30;99.90;;;;;;5066483;28;20036;-76
2023/09/12 06:30:08;;;;;;;94.80;56.92;;;18.40;99.90;;;;;;5045186;28;20040;-77
2023/09/12 06:32:33;;;;;;;85.90;59.00;;;18.30;99.90;;;;;;5046940;28;20041;-77
2023/09/12 06:34:59;;;;;;;79.35;55.00;;;18.30;99.90;;;;;;5065182;28;20097;-77
2023/09/12 06:37:25;;;;;;;93.63;60.28;;;18.30;99.90;;;;;;5065316;28;20047;-77
2023/09/12 06:39:51;;;;;;;159.43;72.28;;;18.30;99.90;;;;;;5043550;28;20739;-77
2023/09/12 06:42:17;;;;;;;102.65;59.75;;;18.30;99.90;;;;;;5051897;28;20123;-77
2023/09/12 06:44:42;;;;;;;103.30;62.10;;;18.30;99.90;;;;;;5065531;28;20105;-76
2023/09/12 06:47:10;;;;;;;111.88;61.53;;;18.30;99.90;;;;;;5061940;28;20427;-76
2023/09/12 06:49:37;;;;;;;105.97;64.07;;;18.30;99.90;;;;;;5045862;28;20036;-76
2023/09/12 06:52:03;;;;;;;97.35;61.30;;;18.30;99.90;;;;;;5056765;28;20060;-76
2023/09/12 06:54:29;;;;;;;117.43;67.70;;;18.40;99.90;;;;;;5049313;28;20106;-76
2023/09/12 06:56:55;;;;;;;107.22;62.47;;;18.40;99.90;;;;;;5057939;28;20880;-76
2023/09/12 06:59:21;;;;;;;80.80;58.35;;;18.50;99.90;;;;;;5061957;28;20514;-76
2023/09/12 07:01:46;;;;;;;88.13;58.78;;;18.50;99.90;;;;;;5061573;28;20048;-76
2023/09/12 07:04:12;;;;;;;113.20;68.18;;;18.50;99.90;;;;;;5065531;28;20040;-76
2023/09/12 07:06:38;;;;;;;94.75;62.95;;;18.60;99.90;;;;;;5046040;28;20271;-76
2023/09/12 07:09:04;;;;;;;112.13;67.72;;;18.70;99.90;;;;;;5061442;28;20495;-76
2023/09/12 07:11:30;;;;;;;90.15;63.97;;;18.80;99.90;;;;;;5068609;28;20521;-76
2023/09/12 07:13:56;;;;;;;95.40;64.97;;;18.80;99.90;;;;;;5061462;28;20044;-76
2023/09/12 07:16:22;;;;;;;96.32;65.50;;;18.90;99.90;;;;;;5063419;28;20139;-76
2023/09/12 07:18:53;;;;;;;82.07;60.08;;;18.90;99.90;;;;;;5060948;28;20140;-76
2023/09/12 07:21:19;;;;;;;130.18;71.60;;;19.00;99.90;;;;;;5101447;27;20490;-76
2023/09/12 07:23:45;;;;;;;130.65;74.43;;;19.00;99.90;;;;;;5060385;28;20040;-76
2023/09/12 07:26:15;;;;;;;97.20;68.32;;;19.10;99.90;;;;;;5056281;28;20051;-76
2023/09/12 07:28:41;;;;;;;81.97;61.67;;;19.20;99.90;;;;;;5044865;28;20075;-76
2023/09/12 07:31:07;;;;;;;83.10;61.55;;;19.20;99.90;;;;;;5068813;28;20458;-76
2023/09/12 07:33:36;;;;;;;83.45;62.83;;;19.30;99.90;;;;;;5051808;28;20076;-75
2023/09/12 07:36:02;;;;;;;79.75;60.78;;;19.30;99.90;;;;;;5065171;28;20108;-76
2023/09/12 07:38:30;;;;;;;89.28;64.93;;;19.30;99.90;;;;;;5061584;28;20045;-76
2023/09/12 07:40:57;;;;;;;99.55;67.68;;;19.40;99.90;;;;;;5045989;28;20131;-76
2023/09/12 07:43:23;;;;;;;75.15;59.03;;;19.50;99.90;;;;;;5043688;28;20044;-75
2023/09/12 07:45:49;;;;;;;69.30;55.10;;;19.50;99.90;;;;;;5065106;28;20045;-75
2023/09/12 07:48:15;;;;;;;71.50;56.90;;;19.60;99.90;;;;;;5061602;28;20059;-76
2023/09/12 07:50:42;;;;;;;70.50;55.72;;;19.70;99.90;;;;;;5064053;28;20114;-76
2023/09/12 07:53:08;;;;;;;77.32;60.33;;;19.70;99.90;;;;;;5063152;28;20084;-75
2023/09/12 07:55:45;;;;;;;74.53;60.50;;;19.80;99.90;;;;;;5062768;28;20091;-75
2023/09/12 07:58:15;;;;;;;82.57;60.47;;;19.80;99.90;;;;;;5044932;28;20493;-75
2023/09/12 08:00:41;;;;;;;75.75;60.08;;;19.90;99.90;;;;;;5058445;28;20186;-76
2023/09/12 08:03:11;;;;;;;71.95;59.05;;;19.80;99.90;;;;;;5066991;28;20044;-75
2023/09/12 08:05:38;;;;;;;67.80;55.80;;;19.80;99.90;;;;;;5059743;28;20105;-75
2023/09/12 08:08:04;;;;;;;68.32;57.67;;;19.80;99.90;;;;;;5056952;28;20396;-75
2023/09/12 08:10:30;;;;;;;79.40;61.13;;;19.80;99.90;;;;;;5046408;28;20053;-75
2023/09/12 08:12:55;;;;;;;73.97;60.03;;;19.80;99.90;;;;;;5056812;28;20040;-76
2023/09/12 08:15:21;;;;;;;67.05;54.00;;;19.80;99.90;;;;;;5058240;28;20514;-75
2023/09/12 08:17:51;;;;;;;60.20;53.65;;;19.80;99.90;;;;;;5058688;28;20483;-76
2023/09/12 08:20:18;;;;;;;58.10;49.42;;;19.80;99.90;;;;;;5057091;28;20139;-75
2023/09/12 08:22:43;;;;;;;56.15;48.47;;;19.70;99.90;;;;;;5043480;28;20119;-75
2023/09/12 08:25:10;;;;;;;59.05;51.55;;;19.70;99.90;;;;;;5062550;28;20567;-75
2023/09/12 08:27:36;;;;;;;61.08;52.40;;;19.70;99.90;;;;;;5059176;28;20048;-75
2023/09/12 08:30:02;;;;;;;63.60;52.47;;;19.70;99.90;;;;;;5057013;28;20053;-75
2023/09/12 08:32:29;;;;;;;60.17;51.53;;;19.70;99.90;;;;;;5044685;28;20431;-76
2023/09/12 08:34:55;;;;;;;61.67;51.85;;;19.70;99.90;;;;;;5060548;28;20037;-75
2023/09/12 08:37:20;;;;;;;61.83;53.35;;;19.70;99.90;;;;;;5062006;28;20491;-75
2023/09/12 08:39:49;;;;;;;60.65;51.22;;;19.60;99.90;;;;;;5059875;28;20048;-75
2023/09/12 08:42:16;;;;;;;55.28;48.95;;;19.60;99.90;;;;;;5044451;28;20044;-75
2023/09/12 08:44:42;;;;;;;64.10;53.42;;;19.60;99.90;;;;;;5061704;28;20043;-75
2023/09/12 08:47:12;;;;;;;59.63;50.75;;;19.60;99.90;;;;;;5076813;28;20416;-75
2023/09/12 08:49:38;;;;;;;62.25;52.42;;;19.60;99.90;;;;;;5059498;28;20040;-75
2023/09/12 08:52:05;;;;;;;58.88;50.30;;;19.70;99.90;;;;;;5045395;28;20075;-75
2023/09/12 08:54:32;;;;;;;62.90;52.22;;;19.70;99.90;;;;;;5066068;28;20101;-75
2023/09/12 08:57:01;;;;;;;62.20;53.72;;;19.70;99.90;;;;;;5052584;28;20117;-75
2023/09/12 08:59:27;;;;;;;58.15;49.72;;;19.80;99.90;;;;;;5057014;28;20445;-75
2023/09/12 09:01:55;;;;;;;60.28;49.72;;;19.80;99.90;;;;;;5040920;28;20044;-75
2023/09/12 09:04:23;;;;;;;57.67;50.60;;;19.90;99.90;;;;;;5043152;28;20488;-74
2023/09/12 09:06:50;;;;;;;59.92;53.47;;;20.00;99.90;;;;;;5042486;28;20040;-74
2023/09/12 09:09:16;;;;;;;71.72;58.97;;;20.20;99.90;;;;;;5042219;28;20127;-74
2023/09/12 09:11:42;;;;;;;58.50;52.22;;;20.20;99.90;;;;;;5055692;28;20045;-75
2023/09/12 09:14:10;;;;;;;60.45;53.95;;;20.30;99.90;;;;;;5059569;28;20048;-74
2023/09/12 09:16:37;;;;;;;53.92;48.00;;;20.40;99.90;;;;;;5070955;28;20037;-74
2023/09/12 09:19:09;;;;;;;56.25;50.15;;;20.40;99.90;;;;;;5061313;28;20520;-74
2023/09/12 09:21:36;;;;;;;58.83;51.60;;;20.50;99.90;;;;;;5047316;28;20045;-75
2023/09/12 09:24:07;;;;;;;59.17;52.78;;;20.50;99.90;;;;;;5055519;28;20036;-74
2023/09/12 09:26:46;;;;;;;60.00;53.50;;;20.60;99.90;;;;;;5058309;28;20045;-74
2023/09/12 09:29:17;;;;;;;55.58;49.58;;;20.60;99.90;;;;;;5041133;28;20040;-74
2023/09/12 09:31:45;;;;;;;55.20;49.33;;;20.60;99.90;;;;;;5067878;28;20040;-74
2023/09/12 09:34:21;;;;;;;63.60;54.65;;;20.60;99.90;;;;;;5052916;28;20406;-74
2023/09/12 09:36:55;;;;;;;57.80;51.30;;;20.60;99.90;;;;;;5061917;28;20089;-74
2023/09/12 09:39:23;;;;;;;54.75;48.95;;;20.70;99.90;;;;;;5094928;28;20056;-74
2023/09/12 09:41:51;;;;;;;59.33;50.95;;;20.70;99.90;;;;;;5059982;28;20487;-74
2023/09/12 09:44:17;;;;;;;51.97;46.67;;;20.80;99.90;;;;;;5055118;28;20044;-74
2023/09/12 09:46:44;;;;;;;52.25;46.88;;;20.80;99.90;;;;;;5061801;28;20044;-74
2023/09/12 09:49:11;;;;;;;55.13;49.08;;;20.80;99.90;;;;;;5051909;28;20450;-74
2023/09/12 09:51:43;;;;;;;62.33;54.17;;;20.90;99.90;;;;;;5094925;28;20379;-74
2023/09/12 09:54:13;;;;;;;53.65;48.00;;;20.90;99.90;;;;;;5065412;28;20109;-74
2023/09/12 09:56:50;;;;;;;55.97;49.20;;;21.00;99.90;;;;;;5049333;28;20538;-74
2023/09/12 09:59:18;;;;;;;52.80;47.33;;;21.00;99.90;;;;;;5061649;28;20406;-74
2023/09/12 10:01:45;;;;;;;52.50;46.97;;;21.10;99.90;;;;;;5080140;28;20045;-74
2023/09/12 10:04:12;;;;;;;48.92;43.83;;;21.10;99.90;;;;;;5047259;28;20123;-74
2023/09/12 10:06:39;;;;;;;46.97;42.05;;;21.20;99.90;;;;;;5061898;28;20036;-74
2023/09/12 10:09:13;;;;;;;48.53;43.53;;;21.30;99.90;;;;;;5102401;27;20056;-73
2023/09/12 10:11:41;;;;;;;49.55;44.45;;;21.50;99.90;;;;;;5047359;28;20045;-74
2023/09/12 10:14:07;;;;;;;52.88;47.33;;;21.60;99.90;;;;;;5060381;28;20048;-73
2023/09/12 10:16:35;;;;;;;49.90;44.70;;;21.70;99.90;;;;;;5064420;28;20072;-74
2023/09/12 10:19:19;;;;;;;52.97;47.38;;;21.80;99.90;;;;;;5058206;28;20044;-73
2023/09/12 10:22:09;;;;;;;47.35;42.38;;;21.90;99.90;;;;;;5062488;28;20400;-74
2023/09/12 10:24:35;;;;;;;48.70;43.78;;;22.00;99.90;;;;;;5066527;28;20080;-74
2023/09/12 10:27:03;;;;;;;50.15;45.03;;;22.00;99.90;;;;;;5058243;28;20037;-74
2023/09/12 10:29:32;;;;;;;47.38;42.55;;;22.10;99.90;;;;;;5050341;28;20032;-74
2023/09/12 10:31:58;;;;;;;46.30;41.63;;;22.10;99.90;;;;;;5071476;28;20399;-73
2023/09/12 10:34:25;;;;;;;46.65;41.70;;;22.00;99.90;;;;;;5045688;28;20039;-73
2023/09/12 10:36:52;;;;;;;42.95;38.65;;;22.10;99.90;;;;;;5055696;28;20040;-74
2023/09/12 10:39:20;;;;;;;46.95;42.38;;;22.10;99.90;;;;;;5062768;28;20052;-74
2023/09/12 10:41:46;;;;;;;45.38;40.80;;;22.20;99.90;;;;;;5065259;28;20047;-74
2023/09/12 10:44:17;;;;;;;48.17;43.25;;;22.20;99.90;;;;;;5059918;28;20144;-74
2023/09/12 10:46:45;;;;;;;43.90;39.70;;;22.30;99.90;;;;;;5062350;28;20145;-73
2023/09/12 10:49:13;;;;;;;41.20;37.25;;;22.40;99.90;;;;;;5044366;28;20076;-73
2023/09/12 10:51:40;;;;;;;42.97;38.67;;;22.40;99.90;;;;;;5062569;28;20147;-73
2023/09/12 10:54:08;;;;;;;40.20;36.30;;;22.40;99.90;;;;;;5067377;28;20450;-74
2023/09/12 10:56:34;;;;;;;45.60;41.05;;;22.40;99.90;;;;;;5045680;28;20051;-73
2023/09/12 10:59:12;;;;;;;43.17;38.75;;;22.40;99.90;;;;;;5061903;28;20131;-73
2023/09/12 11:01:40;;;;;;;41.00;37.13;;;22.40;99.90;;;;;;5045482;28;20052;-74
2023/09/12 11:04:18;;;;;;;38.10;34.28;;;22.60;99.90;;;;;;5069113;28;20405;-73
2023/09/12 11:06:44;;;;;;;33.17;29.75;;;22.70;99.90;;;;;;5068061;28;20327;-74
2023/09/12 11:09:24;;;;;;;31.85;28.73;;;22.90;99.90;;;;;;5045750;28;20506;-74
2023/09/12 11:11:56;;;;;;;38.38;34.38;;;23.10;99.90;;;;;;5062047;28;20036;-74
2023/09/12 11:14:24;;;;;;;42.25;38.00;;;23.10;99.90;;;;;;5058723;28;20477;-73
2023/09/12 11:17:07;;;;;;;33.38;30.13;;;23.20;99.90;;;;;;5053505;28;20041;-74
2023/09/12 11:20:02;;;;;;;32.47;29.23;;;23.30;99.90;;;;;;5059890;28;20503;-73
2023/09/12 11:22:30;;;;;;;33.13;29.70;;;23.40;99.90;;;;;;5058972;28;20099;-74
2023/09/12 11:24:57;;;;;;;30.05;27.15;;;23.50;99.90;;;;;;5060475;28;20503;-73
2023/09/12 11:27:25;;;;;;;33.03;29.83;;;23.60;99.90;;;;;;5041502;28;20048;-74
2023/09/12 11:29:51;;;;;;;33.35;30.30;;;23.70;99.90;;;;;;5058405;28;20123;-73
2023/09/12 11:32:31;;;;;;;34.85;31.38;;;23.80;99.90;;;;;;5062289;28;20183;-73
2023/09/12 11:34:56;;;;;;;33.72;30.42;;;23.80;99.90;;;;;;5092464;28;20056;-73
2023/09/12 11:37:24;;;;;;;29.77;26.90;;;23.90;99.90;;;;;;5043614;28;20403;-73
2023/09/12 11:39:52;;;;;;;25.30;22.80;;;24.00;99.90;;;;;;5063936;28;20534;-74
2023/09/12 11:42:18;;;;;;;22.48;20.35;;;24.00;99.90;;;;;;5045929;28;20059;-74
2023/09/12 11:44:47;;;;;;;25.70;23.00;;;24.10;99.90;;;;;;5062450;28;20040;-74
2023/09/12 11:47:13;;;;;;;26.20;23.80;;;24.10;99.90;;;;;;5045575;28;20053;-74
2023/09/12 11:49:40;;;;;;;24.75;22.25;;;24.20;99.90;;;;;;5064916;28;20044;-74
2023/09/12 11:52:19;;;;;;;26.90;24.20;;;24.30;99.90;;;;;;5055994;28;20137;-74
2023/09/12 11:54:45;;;;;;;25.98;23.27;;;24.50;99.90;;;;;;5057099;28;20080;-74
2023/09/12 11:57:14;;;;;;;20.65;18.60;;;24.50;99.90;;;;;;5041529;28;20107;-74
2023/09/12 11:59:43;;;;;;;22.67;20.47;;;24.60;99.90;;;;;;5061730;28;20090;-74
2023/09/12 12:02:10;;;;;;;21.10;18.95;;;24.50;99.90;;;;;;5061135;28;20040;-74
2023/09/12 12:04:37;;;;;;;16.40;14.55;;;24.40;99.90;;;;;;5044218;28;20044;-74
2023/09/12 12:07:05;;;;;;;20.80;18.00;;;24.20;99.90;;;;;;5054526;28;20054;-74
2023/09/12 12:09:32;;;;;;;23.25;20.95;;;24.10;99.90;;;;;;5067718;28;20560;-74
2023/09/12 12:12:12;;;;;;;22.60;20.30;;;24.00;99.90;;;;;;5046370;28;20400;-74
2023/09/12 12:14:39;;;;;;;22.13;19.92;;;24.00;99.90;;;;;;5050046;28;20329;-74
2023/09/12 12:17:12;;;;;;;23.75;21.35;;;23.90;99.90;;;;;;5058250;28;20079;-74
2023/09/12 12:19:39;;;;;;;19.90;17.95;;;23.90;99.90;;;;;;5060167;28;20036;-74
2023/09/12 12:22:05;;;;;;;20.30;18.30;;;23.80;99.90;;;;;;5054721;28;20040;-73
2023/09/12 12:24:51;;;;;;;20.55;18.55;;;23.80;99.90;;;;;;5044105;28;20135;-74
2023/09/12 12:27:17;;;;;;;20.25;18.15;;;23.80;99.90;;;;;;5077823;28;20040;-74